Jessica S. Settoon — WDD9545 — position and weather

sailwx.info

Track history (hours):
 
Tides and Currents Weather Stations Pressure Air Temp Water Temp Dewpoint Dewpoint Depression Visibility Wind Speed Wind Dir Waves Ship Positions

Jessica S. Settoon

Owner: Settoon Towing LLC, Houma, LA. More information available from US FCC via Universal Licensing System and Coast Guard Vessel Documentation Center.

Last reported at 2016-Aug-25 00:33 UTC. Time now 2016-Aug-25 00:58 UTC.
Position N 29°34' W 090°30'.

Length 17 m; draft 3 m.

Type: Tug. MMSI: 367312940.

Date/timePositionNaut miles runAvg speedWind from/ knotsBaromVisibWave heightAir tempDewpointWater temp
2016-Aug-25 00:33N 29°34' W 090°30'  
2016-Aug-22 16:33N 29°35' W 090°35'6 6.2
2016-Aug-22 15:33N 29°37' W 090°42'6 6.2
2016-Aug-22 14:34N 29°32' W 090°47'10 0.8
2016-Aug-22 02:29N 29°38' W 090°56'  
2016-Aug-16 22:19N 29°46' W 091°45'9 5.3
2016-Aug-16 20:33N 29°51' W 091°54'5 4.6
2016-Aug-16 19:33N 29°50' W 091°59'0 0.0
2016-Aug-16 18:33N 29°50' W 091°59'0 0.0
2016-Aug-16 17:33N 29°50' W 091°59'0 0.0
2016-Aug-16 16:33N 29°50' W 091°59'0 0.0
2016-Aug-16 15:33N 29°50' W 091°59'0 0.0
2016-Aug-16 14:33N 29°50' W 091°59'0 0.0
2016-Aug-16 13:33N 29°50' W 091°59'0 0.0
2016-Aug-16 12:33N 29°50' W 091°59'0 0.0
2016-Aug-16 11:33N 29°50' W 091°59'2 1.7
2016-Aug-16 10:33N 29°50' W 091°58'  
Track history (hours):
 
Tides and Currents Weather Stations Pressure Air Temp Water Temp Dewpoint Dewpoint Depression Visibility Wind Speed Wind Dir Waves Ship Positions

Jessica S. Settoon

Owner: Settoon Towing LLC, Houma, LA. More information available from US FCC via Universal Licensing System and Coast Guard Vessel Documentation Center.

Last reported at 2016-Aug-25 00:33 UTC. Time now 2016-Aug-25 00:58 UTC.
Position N 29°34' W 090°30'.

Length 17 m; draft 3 m.

Type: Tug. MMSI: 367312940.

Date/timePositionNaut miles runAvg speedWind from/ knotsBaromVisibWave heightAir tempDewpointWater temp
2016-Aug-25 00:33N 29°34' W 090°30'  
2016-Aug-22 16:33N 29°35' W 090°35'6 6.2
2016-Aug-22 15:33N 29°37' W 090°42'6 6.2
2016-Aug-22 14:34N 29°32' W 090°47'10 0.8
2016-Aug-22 02:29N 29°38' W 090°56'  
2016-Aug-16 22:19N 29°46' W 091°45'9 5.3
2016-Aug-16 20:33N 29°51' W 091°54'5 4.6
2016-Aug-16 19:33N 29°50' W 091°59'0 0.0
2016-Aug-16 18:33N 29°50' W 091°59'0 0.0
2016-Aug-16 17:33N 29°50' W 091°59'0 0.0
2016-Aug-16 16:33N 29°50' W 091°59'0 0.0
2016-Aug-16 15:33N 29°50' W 091°59'0 0.0
2016-Aug-16 14:33N 29°50' W 091°59'0 0.0
2016-Aug-16 13:33N 29°50' W 091°59'0 0.0
2016-Aug-16 12:33N 29°50' W 091°59'0 0.0
2016-Aug-16 11:33N 29°50' W 091°59'2 1.7
2016-Aug-16 10:33N 29°50' W 091°58'  

Dump ship's entire track history